Time;durP1;ratioP1;P1;durP2;ratioP2;P2;SDS_P1;SDS_P2;PMS_P1;PMS_P2;Temp;Humidity;BMP_temperature;BMP_pressure;BME280_temperature;BME280_humidity;BME280_pressure;Samples;Min_cycle;Max_cycle;Signal;HPM_P1;HPM_P2
2022/07/09 00:03:00;;;;;;;3.22;1.50;;;;;;;20.07;55.89;101306.81;10348347;28;20145;-69
2022/07/09 00:08:02;;;;;;;2.17;1.00;;;;;;;20.09;56.52;101308.34;10361313;28;20069;-69
2022/07/09 00:13:03;;;;;;;2.78;1.15;;;;;;;20.08;55.77;101298.53;10357681;28;20046;-69
2022/07/09 00:18:05;;;;;;;2.00;1.00;;;;;;;20.07;56.35;101296.00;10361860;28;20329;-69
2022/07/09 00:23:07;;;;;;;2.28;1.25;;;;;;;20.05;56.55;101292.63;10353858;28;20057;-68
2022/07/09 00:28:08;;;;;;;3.92;1.30;;;;;;;20.00;56.56;101278.75;10354342;28;20165;-69
2022/07/09 00:33:09;;;;;;;1.73;0.90;;;;;;;19.98;56.49;101276.19;10355987;28;20049;-69
2022/07/09 00:38:11;;;;;;;2.58;0.85;;;;;;;20.01;56.51;101280.44;10347860;28;20580;-70
2022/07/09 00:43:20;;;;;;;2.97;1.15;;;;;;;19.97;56.65;101274.53;10351491;28;20050;-69
2022/07/09 00:48:22;;;;;;;3.42;1.48;;;;;;;19.91;56.83;101269.75;10343458;28;20096;-68
2022/07/09 00:53:25;;;;;;;2.05;0.90;;;;;;;19.92;56.80;101272.31;10352138;28;20056;-69
2022/07/09 00:58:27;;;;;;;2.42;1.20;;;;;;;19.88;57.25;101262.81;10348576;28;20049;-70
2022/07/09 01:03:28;;;;;;;2.90;1.23;;;;;;;19.89;57.24;101266.34;10351076;28;20052;-69
2022/07/09 01:08:30;;;;;;;3.38;1.73;;;;;;;19.87;57.23;101257.56;10349316;28;20144;-69
2022/07/09 01:13:32;;;;;;;2.33;1.13;;;;;;;19.85;57.11;101256.91;10352326;28;20054;-68
2022/07/09 01:18:33;;;;;;;3.33;1.40;;;;;;;19.83;57.63;101256.19;10353066;28;20131;-68
2022/07/09 01:23:35;;;;;;;2.47;1.23;;;;;;;19.79;57.49;101252.97;10351190;28;20063;-68
2022/07/09 01:28:37;;;;;;;2.38;1.20;;;;;;;19.73;57.43;101251.72;10345760;28;20129;-68
2022/07/09 01:33:40;;;;;;;3.50;1.55;;;;;;;19.69;57.86;101242.22;10346884;28;20516;-68
2022/07/09 01:38:42;;;;;;;3.22;1.60;;;;;;;19.57;58.55;101238.09;10349107;28;20061;-68
2022/07/09 01:43:43;;;;;;;3.47;1.88;;;;;;;19.63;58.52;101236.63;10348757;28;20049;-68
2022/07/09 01:48:45;;;;;;;3.60;1.70;;;;;;;19.61;58.93;101228.69;10349056;28;20045;-68
2022/07/09 01:53:46;;;;;;;2.47;1.50;;;;;;;19.60;58.73;101229.69;10345374;28;20492;-69
2022/07/09 01:58:47;;;;;;;2.80;1.40;;;;;;;19.57;58.60;101235.41;10345626;28;20118;-69
2022/07/09 02:03:49;;;;;;;3.80;1.48;;;;;;;19.52;58.61;101235.03;10351813;28;20064;-68
2022/07/09 02:08:52;;;;;;;2.97;1.30;;;;;;;19.45;58.62;101231.28;10361928;28;20049;-68
2022/07/09 02:13:53;;;;;;;2.92;1.02;;;;;;;19.32;58.61;101224.44;10363452;28;20160;-68
2022/07/09 02:18:55;;;;;;;1.20;0.98;;;;;;;19.26;58.91;101219.69;10364020;28;20046;-68
2022/07/09 02:23:58;;;;;;;1.55;0.88;;;;;;;19.26;59.28;101222.38;10361165;28;20045;-68
2022/07/09 02:29:00;;;;;;;1.90;1.20;;;;;;;19.23;59.59;101217.28;10363033;28;20133;-69
2022/07/09 02:34:01;;;;;;;1.83;0.77;;;;;;;19.22;59.88;101215.59;10355947;28;20050;-68
2022/07/09 02:39:03;;;;;;;2.92;1.17;;;;;;;19.19;59.91;101215.91;10349749;28;20101;-69
2022/07/09 02:44:04;;;;;;;4.40;1.33;;;;;;;19.11;60.04;101218.53;10344373;28;20037;-68
2022/07/09 02:49:05;;;;;;;2.08;1.08;;;;;;;19.01;60.28;101216.75;10343631;28;20121;-70
2022/07/09 02:54:07;;;;;;;2.28;1.00;;;;;;;18.94;60.65;101217.53;10344061;28;20771;-69
2022/07/09 02:59:08;;;;;;;2.58;1.30;;;;;;;18.90;60.67;101211.63;10343915;28;20057;-69
2022/07/09 03:04:10;;;;;;;2.60;1.13;;;;;;;18.87;60.67;101217.31;10340884;28;20076;-68
2022/07/09 03:09:12;;;;;;;2.78;1.38;;;;;;;18.78;60.74;101202.88;10329678;28;20049;-69
2022/07/09 03:14:14;;;;;;;3.08;1.58;;;;;;;18.76;61.12;101201.34;10345358;28;20057;-69
2022/07/09 03:19:15;;;;;;;3.60;1.13;;;;;;;18.73;61.25;101205.19;10339344;28;20822;-69
2022/07/09 03:24:17;;;;;;;3.50;1.63;;;;;;;18.71;61.43;101208.03;10336804;28;20120;-69
2022/07/09 03:29:19;;;;;;;3.08;1.70;;;;;;;18.66;61.61;101199.56;10355628;28;20070;-69
2022/07/09 03:34:20;;;;;;;3.28;1.65;;;;;;;18.70;61.57;101205.47;10345591;28;20137;-70
2022/07/09 03:39:22;;;;;;;4.35;2.08;;;;;;;18.67;61.53;101195.84;10349646;28;20150;-69
2022/07/09 03:44:23;;;;;;;3.65;2.10;;;;;;;18.64;61.73;101196.16;10363159;28;20501;-70
2022/07/09 03:49:25;;;;;;;3.03;1.77;;;;;;;18.67;61.64;101200.41;10372960;28;20052;-70
2022/07/09 03:54:27;;;;;;;3.72;2.08;;;;;;;18.65;61.45;101213.19;10368241;28;20493;-72
2022/07/09 03:59:28;;;;;;;4.57;2.35;;;;;;;18.57;61.67;101194.22;10350591;28;20080;-69
2022/07/09 04:04:30;;;;;;;3.25;2.95;;;;;;;18.62;61.74;101208.94;10351851;28;20873;-69
2022/07/09 04:09:31;;;;;;;4.53;3.15;;;;;;;18.58;61.78;101201.31;10352991;28;20061;-70
2022/07/09 04:14:33;;;;;;;4.13;2.78;;;;;;;18.61;61.72;101206.41;10362047;28;20195;-68
2022/07/09 04:19:34;;;;;;;3.53;2.50;;;;;;;18.62;61.89;101208.94;10349372;28;20038;-69
2022/07/09 04:24:36;;;;;;;6.75;2.70;;;;;;;18.61;61.89;101203.72;10351904;28;20073;-68
2022/07/09 04:29:37;;;;;;;4.13;1.88;;;;;;;18.62;62.01;101203.56;10356559;28;20053;-68
2022/07/09 04:34:38;;;;;;;2.72;1.80;;;;;;;18.58;62.29;101196.78;10354861;28;20053;-68
2022/07/09 04:39:40;;;;;;;2.90;2.42;;;;;;;18.67;62.02;101201.25;10351524;28;20499;-69
2022/07/09 04:44:42;;;;;;;3.15;2.20;;;;;;;18.71;62.26;101202.63;10345093;28;20429;-69
2022/07/09 04:49:44;;;;;;;5.95;2.90;;;;;;;18.72;62.31;101198.94;10352753;28;20115;-68
2022/07/09 04:54:46;;;;;;;4.93;2.45;;;;;;;18.73;62.23;101191.69;10351912;28;20131;-70
2022/07/09 04:59:48;;;;;;;4.13;2.47;;;;;;;18.73;62.32;101189.88;10356933;28;20806;-68
2022/07/09 05:04:49;;;;;;;3.25;2.65;;;;;;;18.84;61.89;101193.31;10348729;28;20057;-71
2022/07/09 05:09:50;;;;;;;3.55;2.28;;;;;;;19.03;61.82;101190.47;10353759;28;20156;-70
2022/07/09 05:14:52;;;;;;;4.15;2.90;;;;;;;19.12;61.57;101198.66;10354208;28;20161;-68
2022/07/09 05:19:54;;;;;;;3.28;2.28;;;;;;;19.17;61.86;101199.88;10349899;28;20052;-70
2022/07/09 05:24:55;;;;;;;4.85;2.80;;;;;;;19.15;61.79;101188.38;10349328;28;20050;-69
2022/07/09 05:29:57;;;;;;;7.43;3.00;;;;;;;19.18;61.98;101192.63;10348070;28;20459;-69
2022/07/09 05:34:58;;;;;;;5.63;2.25;;;;;;;19.16;62.23;101187.38;10351009;28;20049;-69
2022/07/09 05:40:05;;;;;;;5.95;3.53;;;;;;;19.20;62.50;101185.19;10343765;28;20045;-69
2022/07/09 05:45:07;;;;;;;2.92;2.45;;;;;;;19.28;62.28;101185.28;10351413;28;20060;-70
2022/07/09 05:50:09;;;;;;;3.30;2.83;;;;;;;19.37;62.14;101186.19;10345354;28;20567;-69
2022/07/09 05:55:10;;;;;;;4.10;2.75;;;;;;;19.40;62.37;101186.69;10348499;28;20709;-71
2022/07/09 06:00:12;;;;;;;5.00;2.70;;;;;;;19.53;62.34;101196.22;10329132;28;20046;-70
2022/07/09 06:05:14;;;;;;;4.10;2.45;;;;;;;19.60;61.96;101186.47;10340916;28;20962;-69
2022/07/09 06:10:17;;;;;;;5.57;2.63;;;;;;;19.78;61.78;101192.69;10329792;28;20171;-68
2022/07/09 06:15:18;;;;;;;2.90;2.60;;;;;;;19.87;61.16;101193.56;10338216;28;20772;-64
2022/07/09 06:20:20;;;;;;;4.22;3.15;;;;;;;19.97;60.54;101182.66;10330535;28;20278;-70
2022/07/09 06:25:21;;;;;;;6.72;2.50;;;;;;;20.07;60.26;101182.50;10343957;28;20449;-68
2022/07/09 06:30:23;;;;;;;5.13;3.10;;;;;;;20.18;59.49;101189.50;10343839;28;20627;-68
2022/07/09 06:35:25;;;;;;;3.63;2.65;;;;;;;20.37;59.06;101191.03;10333978;28;20412;-69
2022/07/09 06:40:26;;;;;;;2.42;2.22;;;;;;;20.58;58.43;101182.47;10352031;28;20061;-70
2022/07/09 06:45:28;;;;;;;3.50;2.13;;;;;;;20.84;57.80;101191.31;10337222;28;20140;-69
2022/07/09 06:50:30;;;;;;;3.55;2.58;;;;;;;20.94;57.22;101196.59;10348640;28;20204;-69
2022/07/09 06:55:31;;;;;;;2.75;1.88;;;;;;;21.08;57.27;101197.75;10344439;28;20049;-69
2022/07/09 07:00:33;;;;;;;3.65;2.35;;;;;;;21.19;56.86;101199.28;10336000;28;20750;-70
2022/07/09 07:05:35;;;;;;;3.53;1.90;;;;;;;21.45;56.21;101199.09;10341721;28;20053;-69
2022/07/09 07:10:36;;;;;;;6.68;2.20;;;;;;;21.75;55.41;101193.94;10332404;28;20132;-71
2022/07/09 07:15:44;;;;;;;4.40;2.63;;;;;;;21.93;55.29;101187.44;10339174;28;20053;-72
2022/07/09 07:20:46;;;;;;;5.60;2.58;;;;;;;21.96;54.62;101189.81;10331646;28;20052;-70
2022/07/09 07:25:47;;;;;;;5.40;2.80;;;;;;;22.09;54.54;101190.09;10332176;28;20606;-71
2022/07/09 07:30:49;;;;;;;4.03;2.10;;;;;;;22.44;54.14;101193.31;10298344;28;20053;-69
2022/07/09 07:35:50;;;;;;;3.35;1.95;;;;;;;22.59;53.54;101191.53;10312853;28;20523;-69
2022/07/09 07:40:52;;;;;;;4.97;2.97;;;;;;;22.62;52.99;101181.34;10330695;28;20058;-69
2022/07/09 07:45:53;;;;;;;4.43;2.08;;;;;;;22.48;53.36;101174.84;10320457;28;20252;-70
2022/07/09 07:50:55;;;;;;;4.68;2.10;;;;;;;22.39;53.66;101180.28;10315397;28;21304;-71
2022/07/09 07:55:56;;;;;;;3.90;2.17;;;;;;;22.34;53.75;101181.84;10291857;28;20134;-72
2022/07/09 08:00:59;;;;;;;3.15;2.08;;;;;;;22.39;53.44;101184.88;10312990;28;20050;-71
2022/07/09 08:06:00;;;;;;;4.43;2.72;;;;;;;22.48;52.70;101181.09;10320184;28;20160;-72
2022/07/09 08:11:02;;;;;;;3.63;1.98;;;;;;;22.60;52.29;101171.50;10342012;28;20789;-71
2022/07/09 08:16:04;;;;;;;4.63;2.15;;;;;;;23.06;50.29;101172.50;10342242;28;20049;-73
2022/07/09 08:21:05;;;;;;;3.05;1.83;;;;;;;23.36;50.07;101159.88;10343190;28;20060;-73
2022/07/09 08:26:07;;;;;;;5.45;2.33;;;;;;;23.45;49.20;101166.06;10350849;28;20140;-72
2022/07/09 08:31:08;;;;;;;3.03;2.33;;;;;;;23.34;49.05;101150.22;10358197;28;20203;-72
2022/07/09 08:36:10;;;;;;;2.97;2.10;;;;;;;22.88;48.31;101168.25;10354091;28;20086;-73
2022/07/09 08:41:12;;;;;;;3.55;1.80;;;;;;;22.93;47.85;101157.69;10354589;28;20139;-73
2022/07/09 08:46:15;;;;;;;3.40;2.00;;;;;;;22.99;47.20;101147.13;10354419;28;20044;-73
2022/07/09 08:51:19;;;;;;;3.58;2.35;;;;;;;23.32;46.62;101157.72;10345741;28;21335;-72
2022/07/09 08:56:20;;;;;;;;;;;;;;;23.72;45.81;101148.25;10333146;28;20097;-70
2022/07/09 09:01:21;;;;;;;2.25;1.92;;;;;;;23.86;44.66;101135.69;10346677;28;19933;-70
2022/07/09 09:06:23;;;;;;;3.33;1.75;;;;;;;23.95;44.72;101133.72;10345431;28;20052;-70
2022/07/09 09:11:26;;;;;;;1.83;1.30;;;;;;;24.27;43.82;101131.56;10333075;28;20068;-70
2022/07/09 09:16:28;;;;;;;3.67;0.93;;;;;;;24.79;43.32;101132.31;10338639;28;20131;-70
2022/07/09 09:21:29;;;;;;;1.63;1.52;;;;;;;24.95;41.86;101121.16;10326250;28;20046;-70
2022/07/09 09:26:33;;;;;;;1.85;0.90;;;;;;;24.54;42.56;101102.75;10322914;28;20180;-70
2022/07/09 09:31:40;;;;;;;2.75;1.00;;;;;;;24.85;41.84;101105.13;10317520;28;20049;-70
2022/07/09 09:36:43;;;;;;;2.92;1.02;;;;;;;24.95;41.27;101110.25;10332999;28;20103;-69
2022/07/09 09:41:47;;;;;;;1.83;0.68;;;;;;;24.58;42.70;101098.63;10334532;28;20098;-70
2022/07/09 09:46:49;;;;;;;2.00;0.50;;;;;;;24.37;42.11;101112.22;10331578;28;20112;-70
2022/07/09 09:52:07;;;;;;;4.45;1.52;;;;;;;24.61;40.87;101100.97;10328785;28;20100;-71
2022/07/09 09:57:10;;;;;;;1.85;0.63;;;;;;;24.87;41.83;101102.22;10336372;28;20448;-70
2022/07/09 10:02:12;;;;;;;1.55;0.65;;;;;;;25.24;40.82;101100.19;10319414;28;20061;-69
2022/07/09 10:07:15;;;;;;;1.17;0.50;;;;;;;25.24;40.64;101097.47;10329897;28;20557;-70
2022/07/09 10:12:27;;;;;;;0.95;0.63;;;;;;;25.69;40.10;101089.75;10336725;28;20053;-72
2022/07/09 10:17:39;;;;;;;1.13;0.80;;;;;;;25.68;38.69;101076.31;10329498;28;20639;-70
2022/07/09 10:22:43;;;;;;;2.90;1.10;;;;;;;26.05;38.58;101077.75;10334555;28;20502;-74
2022/07/09 10:27:46;;;;;;;1.95;1.23;;;;;;;25.82;38.08;101080.78;10321451;28;20104;-72
2022/07/09 10:33:01;;;;;;;1.88;1.48;;;;;;;26.27;38.02;101078.41;10324466;28;20138;-73
2022/07/09 10:38:03;;;;;;;5.70;1.65;;;;;;;26.87;37.49;101069.41;10336748;28;20056;-71
2022/07/09 10:43:04;;;;;;;5.18;1.50;;;;;;;26.99;36.46;101056.81;10335781;28;20045;-72
2022/07/09 10:48:09;;;;;;;3.45;1.83;;;;;;;26.76;37.48;101057.25;10334880;28;20134;-72
2022/07/09 10:53:11;;;;;;;2.13;1.52;;;;;;;27.07;37.83;101031.16;10299549;28;20099;-72
2022/07/09 10:58:17;;;;;;;1.80;1.58;;;;;;;27.51;36.52;101047.84;10325311;28;20053;-71
2022/07/09 11:03:25;;;;;;;2.15;1.70;;;;;;;27.80;36.39;101035.53;10328140;28;20180;-73
2022/07/09 11:08:26;;;;;;;2.30;1.60;;;;;;;27.50;35.75;101025.16;10327438;28;20213;-71
2022/07/09 11:13:28;;;;;;;2.67;1.90;;;;;;;27.55;36.86;101015.44;10334269;28;20049;-73
2022/07/09 11:18:29;;;;;;;2.13;1.90;;;;;;;27.64;36.21;101014.16;10334670;28;20523;-73
2022/07/09 11:23:31;;;;;;;1.50;1.00;;;;;;;27.45;36.09;101004.97;10340857;28;20053;-72
2022/07/09 11:28:33;;;;;;;2.33;0.77;;;;;;;27.69;34.35;101008.84;10320633;28;20835;-72
2022/07/09 11:38:57;;;;;;;1.60;1.23;;;;;;;28.41;34.70;100988.59;10314134;28;21073;-74
2022/07/09 11:43:58;;;;;;;1.52;1.02;;;;;;;28.58;33.71;100986.94;10313981;28;20080;-74
2022/07/09 11:49:00;;;;;;;1.33;0.80;;;;;;;28.83;34.44;100986.94;10322401;28;20081;-73
2022/07/09 11:54:02;;;;;;;2.80;1.17;;;;;;;28.65;31.72;100981.44;10322859;28;20042;-72
2022/07/09 11:59:03;;;;;;;1.00;0.70;;;;;;;28.10;33.01;100977.44;10309660;28;20128;-73
2022/07/09 12:04:05;;;;;;;1.00;0.73;;;;;;;28.09;32.90;100975.81;10342468;28;20045;-71
2022/07/09 12:09:07;;;;;;;2.17;1.13;;;;;;;28.34;33.33;100966.75;10354905;28;20483;-73
2022/07/09 12:14:09;;;;;;;3.35;1.55;;;;;;;27.94;33.82;100972.50;10356811;28;20180;-72
2022/07/09 12:19:11;;;;;;;2.10;1.42;;;;;;;27.77;35.05;100970.28;10360332;28;20064;-74
2022/07/09 12:24:13;;;;;;;1.07;0.90;;;;;;;27.60;34.92;100959.03;10370088;28;20099;-73
2022/07/09 12:29:14;;;;;;;3.20;0.97;;;;;;;27.57;35.18;100948.53;10352114;28;20196;-72
2022/07/09 12:34:15;;;;;;;1.98;1.23;;;;;;;27.39;35.11;100937.50;10353779;28;20124;-73
2022/07/09 12:39:17;;;;;;;2.85;1.40;;;;;;;27.81;34.46;100938.72;10363481;28;20156;-74
2022/07/09 12:44:18;;;;;;;1.48;1.15;;;;;;;27.91;34.71;100938.22;10365847;28;20148;-73
2022/07/09 12:49:20;;;;;;;2.57;1.20;;;;;;;27.45;33.84;100923.78;10357150;28;20231;-73
2022/07/09 12:54:21;;;;;;;1.37;1.00;;;;;;;27.74;34.00;100916.03;10352867;28;20052;-75
2022/07/09 12:59:23;;;;;;;1.33;0.90;;;;;;;28.19;33.06;100918.69;10340078;28;20060;-73
2022/07/09 13:04:24;;;;;;;2.60;1.00;;;;;;;27.76;32.96;100897.53;10359684;28;20912;-74
2022/07/09 13:09:26;;;;;;;2.00;1.67;;;;;;;28.06;33.19;100899.63;10368583;28;20150;-70
2022/07/09 13:14:27;;;;;;;1.60;1.23;;;;;;;28.48;31.28;100897.13;10363572;28;20140;-74
2022/07/09 13:19:29;;;;;;;2.63;1.00;;;;;;;27.99;31.38;100890.63;10335819;28;20049;-73
2022/07/09 13:24:30;;;;;;;1.33;1.00;;;;;;;27.50;31.48;100885.72;10345671;28;20179;-75
2022/07/09 13:29:32;;;;;;;2.30;0.90;;;;;;;27.61;32.27;100878.69;10344715;28;20096;-74
2022/07/09 13:34:33;;;;;;;1.33;0.82;;;;;;;27.63;31.86;100882.03;10342113;28;20050;-73
2022/07/09 13:39:34;;;;;;;0.77;0.50;;;;;;;27.69;32.85;100883.06;10342686;28;21147;-72
2022/07/09 13:44:36;;;;;;;1.88;1.00;;;;;;;27.62;32.02;100883.13;10332448;28;20075;-71
2022/07/09 13:49:37;;;;;;;1.07;0.87;;;;;;;27.16;33.60;100874.09;10334606;28;20108;-72
2022/07/09 13:54:39;;;;;;;2.08;0.90;;;;;;;27.43;32.52;100865.78;10337976;28;20161;-72
2022/07/09 13:59:41;;;;;;;1.83;0.70;;;;;;;27.53;32.64;100876.22;10334801;28;20063;-73
2022/07/09 14:04:42;;;;;;;1.87;1.00;;;;;;;27.52;32.47;100863.63;10334870;28;20200;-73
2022/07/09 14:09:44;;;;;;;1.55;0.75;;;;;;;27.43;32.06;100857.59;10330607;28;20391;-73
2022/07/09 14:14:45;;;;;;;2.85;0.65;;;;;;;27.62;31.84;100854.91;10330961;28;20061;-73
2022/07/09 14:19:46;;;;;;;1.80;0.60;;;;;;;27.73;31.31;100832.34;10332230;28;20048;-73
2022/07/09 14:24:48;;;;;;;1.83;1.30;;;;;;;27.43;31.46;100827.53;10314580;28;20052;-73
2022/07/09 14:29:49;;;;;;;1.40;0.90;;;;;;;27.30;31.83;100830.31;10324918;28;20559;-73
2022/07/09 14:34:51;;;;;;;1.45;1.02;;;;;;;27.38;32.50;100827.31;10331832;28;20552;-74
2022/07/09 14:39:52;;;;;;;1.30;0.98;;;;;;;27.56;31.32;100825.75;10338132;28;20476;-74
2022/07/09 14:44:54;;;;;;;0.80;0.80;;;;;;;27.49;31.31;100810.22;10341100;28;20697;-74
2022/07/09 14:49:55;;;;;;;1.17;0.90;;;;;;;27.26;31.90;100793.53;10339284;28;20627;-72
2022/07/09 14:54:57;;;;;;;1.13;0.80;;;;;;;27.22;30.97;100797.78;10334860;28;20250;-72
2022/07/09 14:59:58;;;;;;;3.10;0.73;;;;;;;27.12;31.63;100799.09;10333084;28;20053;-73
2022/07/09 15:04:59;;;;;;;1.70;0.75;;;;;;;27.23;31.31;100791.25;10330286;28;20061;-72
2022/07/09 15:10:03;;;;;;;1.00;0.65;;;;;;;27.21;31.80;100790.66;10334849;28;20050;-75
2022/07/09 15:15:06;;;;;;;1.70;1.05;;;;;;;27.09;31.61;100785.88;10333294;28;20828;-72
2022/07/09 15:20:08;;;;;;;1.35;1.00;;;;;;;26.81;31.85;100791.72;10334213;28;20057;-71
2022/07/09 15:25:10;;;;;;;1.75;1.02;;;;;;;26.58;32.52;100781.31;10341299;28;20548;-72
2022/07/09 15:30:11;;;;;;;0.83;0.70;;;;;;;26.57;32.90;100785.06;10344057;28;20567;-69
2022/07/09 15:35:13;;;;;;;1.23;0.80;;;;;;;26.38;33.74;100776.75;10352152;28;20199;-72
2022/07/09 15:40:15;;;;;;;7.88;1.55;;;;;;;26.17;33.61;100793.41;10341868;28;20064;-71
2022/07/09 15:45:18;;;;;;;1.58;1.20;;;;;;;26.09;34.11;100773.50;10347767;28;20136;-72
2022/07/09 15:50:20;;;;;;;1.88;1.10;;;;;;;25.99;34.15;100767.63;10349814;28;20963;-73
2022/07/09 15:55:22;;;;;;;;;;;;;;;25.90;34.64;100774.34;10341750;28;20073;-72
2022/07/09 16:00:26;;;;;;;1.90;1.63;;;;;;;25.60;35.67;100774.78;10353413;28;19929;-72
2022/07/09 16:05:27;;;;;;;1.55;1.25;;;;;;;25.43;36.27;100770.78;10349731;28;20608;-71
2022/07/09 16:10:29;;;;;;;2.90;1.20;;;;;;;25.32;36.60;100766.81;10345922;28;20538;-73
2022/07/09 16:15:30;;;;;;;2.55;1.25;;;;;;;25.22;36.76;100772.63;10352456;28;20049;-70
2022/07/09 16:20:32;;;;;;;2.20;1.13;;;;;;;25.24;37.10;100786.91;10346600;28;20060;-72
2022/07/09 16:25:33;;;;;;;3.15;1.38;;;;;;;25.16;36.84;100797.97;10332490;28;20056;-70
2022/07/09 16:30:35;;;;;;;2.17;1.25;;;;;;;24.79;38.05;100800.19;10351656;28;20049;-70
2022/07/09 16:35:36;;;;;;;2.38;1.40;;;;;;;24.61;39.75;100825.25;10345712;28;20202;-72
2022/07/09 16:40:38;;;;;;;1.98;1.67;;;;;;;24.32;41.93;100833.44;10329956;28;20041;-71
2022/07/09 16:45:40;;;;;;;2.37;1.87;;;;;;;24.01;45.31;100858.34;10338992;28;20053;-71
2022/07/09 16:50:41;;;;;;;2.65;2.05;;;;;;;23.57;47.64;100851.22;10352003;28;20420;-74
2022/07/09 16:55:43;;;;;;;2.70;1.98;;;;;;;23.32;49.00;100858.94;10319378;28;20042;-72
2022/07/09 17:00:44;;;;;;;2.28;1.77;;;;;;;23.17;49.69;100851.66;10334626;28;20087;-73
2022/07/09 17:05:46;;;;;;;2.17;1.70;;;;;;;22.92;50.99;100871.00;10346830;28;20057;-72
2022/07/09 17:10:48;;;;;;;2.33;1.60;;;;;;;23.14;49.95;100871.06;10330375;28;20093;-71
2022/07/09 17:15:49;;;;;;;2.10;1.33;;;;;;;22.95;51.03;100876.03;10341358;28;20053;-71
2022/07/09 17:20:52;;;;;;;2.08;1.58;;;;;;;22.78;51.07;100871.84;10342815;28;20076;-71
2022/07/09 17:25:54;;;;;;;3.15;2.08;;;;;;;22.59;51.07;100857.84;10316548;28;20049;-71
2022/07/09 17:30:56;;;;;;;2.30;1.53;;;;;;;22.62;50.94;100858.47;10310177;28;20385;-70
2022/07/09 17:35:58;;;;;;;3.63;2.03;;;;;;;22.70;51.15;100839.38;10342990;28;20050;-71
2022/07/09 17:41:05;;;;;;;2.40;1.50;;;;;;;22.76;50.37;100854.91;10313010;28;20105;-70
2022/07/09 17:46:08;;;;;;;3.75;2.03;;;;;;;22.51;51.47;100847.06;10324890;28;20056;-71
2022/07/09 17:51:10;;;;;;;;;;;;;;;22.62;51.04;100845.75;10332169;28;20131;-72
2022/07/09 17:56:11;;;;;;;2.90;1.80;;;;;;;22.64;51.15;100840.13;10325529;28;19968;-72
2022/07/09 18:01:13;;;;;;;2.67;1.75;;;;;;;22.93;50.92;100839.25;10318458;28;20130;-72
2022/07/09 18:06:17;;;;;;;2.58;1.80;;;;;;;23.10;50.46;100848.91;10338532;28;20072;-72
2022/07/09 18:11:18;;;;;;;1.95;1.67;;;;;;;23.19;50.22;100843.34;10334688;28;20241;-73
2022/07/09 18:16:20;;;;;;;2.38;1.58;;;;;;;23.16;51.27;100839.13;10317803;28;20060;-73
2022/07/09 18:21:23;;;;;;;3.03;1.45;;;;;;;23.16;52.08;100843.72;10303306;28;20057;-72
2022/07/09 18:26:24;;;;;;;2.25;1.42;;;;;;;22.91;52.48;100831.31;10308808;28;20049;-74
2022/07/09 18:31:26;;;;;;;2.25;1.55;;;;;;;22.85;53.81;100834.78;10334528;28;20088;-73
2022/07/09 18:36:27;;;;;;;2.22;1.90;;;;;;;22.81;54.66;100830.75;10322755;28;20053;-72
2022/07/09 18:41:29;;;;;;;2.00;1.38;;;;;;;22.72;55.56;100835.44;10342868;28;20102;-73
2022/07/09 18:46:30;;;;;;;2.25;2.00;;;;;;;22.62;54.76;100825.94;10348408;28;20075;-72
2022/07/09 18:51:32;;;;;;;2.35;2.15;;;;;;;22.52;56.21;100837.03;10348819;28;20049;-72
2022/07/09 18:56:37;;;;;;;2.00;1.90;;;;;;;22.41;56.86;100830.22;10340631;28;20059;-74
2022/07/09 19:01:38;;;;;;;3.20;2.17;;;;;;;22.39;56.91;100837.72;10320800;28;20049;-71
2022/07/09 19:06:40;;;;;;;2.10;1.80;;;;;;;22.30;56.92;100833.41;10339246;28;20151;-72
2022/07/09 19:11:43;;;;;;;2.67;2.20;;;;;;;22.22;57.30;100843.28;10353846;28;20077;-72
2022/07/09 19:16:45;;;;;;;;;;;;;;;22.09;57.94;100836.84;10346694;28;20061;-72
2022/07/09 19:21:46;;;;;;;2.25;2.05;;;;;;;21.98;58.14;100840.81;10346531;28;19925;-72
2022/07/09 19:26:48;;;;;;;2.78;2.58;;;;;;;21.92;58.50;100842.41;10324326;28;20265;-71
2022/07/09 19:37:09;;;;;;;2.40;1.92;;;;;;;21.80;57.62;100842.03;10341283;28;20501;-71
2022/07/09 19:42:11;;;;;;;2.83;2.40;;;;;;;21.53;57.28;100846.16;10334343;28;20185;-71
2022/07/09 19:47:12;;;;;;;2.75;2.30;;;;;;;21.58;57.73;100853.72;10337570;28;20195;-72
2022/07/09 19:52:15;;;;;;;2.15;1.95;;;;;;;21.63;57.17;100854.88;10335563;28;20053;-71
2022/07/09 19:57:16;;;;;;;2.05;1.85;;;;;;;21.65;56.73;100863.66;10343305;28;20512;-70
2022/07/09 20:02:18;;;;;;;2.25;1.90;;;;;;;21.53;56.15;100855.09;10326554;28;20270;-74
2022/07/09 20:07:21;;;;;;;2.65;2.28;;;;;;;21.56;56.74;100874.72;10329477;28;20053;-72
2022/07/09 20:12:23;;;;;;;2.55;1.45;;;;;;;21.59;57.25;100877.06;10294782;28;20734;-70
2022/07/09 20:17:24;;;;;;;2.75;2.03;;;;;;;21.49;56.84;100872.69;10332997;28;20107;-69
2022/07/09 20:22:27;;;;;;;2.08;1.80;;;;;;;21.35;57.05;100868.06;10335332;28;20073;-72
2022/07/09 20:27:28;;;;;;;2.42;2.22;;;;;;;21.31;57.57;100853.19;10328669;28;20991;-69
2022/07/09 20:32:30;;;;;;;2.97;1.73;;;;;;;21.25;57.40;100853.91;10337912;28;20371;-69
2022/07/09 20:37:31;;;;;;;2.15;1.98;;;;;;;21.29;57.15;100866.09;10338823;28;20412;-71
2022/07/09 20:42:33;;;;;;;2.70;1.85;;;;;;;21.23;57.32;100858.66;10329325;28;20054;-72
2022/07/09 20:47:34;;;;;;;2.08;1.90;;;;;;;21.18;57.10;100857.34;10321474;28;20129;-72
2022/07/09 20:52:36;;;;;;;2.45;1.55;;;;;;;21.18;57.00;100868.19;10325353;28;20139;-70
2022/07/09 20:57:37;;;;;;;2.55;1.90;;;;;;;21.15;56.61;100873.94;10337751;28;20819;-72
2022/07/09 21:02:39;;;;;;;3.85;1.65;;;;;;;21.07;57.30;100865.84;10325860;28;20088;-71
2022/07/09 21:07:41;;;;;;;3.40;2.53;;;;;;;21.07;56.51;100878.56;10335964;28;20053;-70
2022/07/09 21:12:42;;;;;;;2.13;1.75;;;;;;;20.93;56.74;100874.75;10314211;28;20062;-70
2022/07/09 21:23:08;;;;;;;1.67;1.40;;;;;;;20.82;55.77;100874.09;10336081;28;20044;-71
2022/07/09 21:28:09;;;;;;;2.33;1.65;;;;;;;20.77;55.34;100871.06;10339490;28;20150;-72
2022/07/09 21:33:10;;;;;;;1.42;1.20;;;;;;;20.79;55.34;100879.88;10332885;28;20530;-71
2022/07/09 21:38:12;;;;;;;2.30;2.10;;;;;;;20.80;55.88;100881.53;10311005;28;20159;-70
2022/07/09 21:43:14;;;;;;;1.73;1.63;;;;;;;20.75;56.20;100866.88;10325047;28;20049;-70
2022/07/09 21:48:15;;;;;;;2.05;1.85;;;;;;;20.66;56.67;100869.59;10332613;28;20564;-71
2022/07/09 21:53:17;;;;;;;2.08;1.50;;;;;;;20.64;56.77;100873.44;10329564;28;20581;-71
2022/07/09 21:58:18;;;;;;;2.78;1.65;;;;;;;20.50;55.95;100877.72;10313476;28;20049;-70
2022/07/09 22:03:21;;;;;;;2.75;1.30;;;;;;;20.20;57.03;100868.50;10324990;28;20053;-69
2022/07/09 22:08:23;;;;;;;2.23;1.50;;;;;;;20.24;56.59;100867.16;10333448;28;20140;-70
2022/07/09 22:13:24;;;;;;;1.90;1.23;;;;;;;20.35;56.19;100869.50;10325297;28;20056;-68
2022/07/09 22:18:25;;;;;;;1.88;1.25;;;;;;;20.37;55.15;100877.41;10343836;28;20116;-68
2022/07/09 22:23:28;;;;;;;1.63;1.40;;;;;;;20.29;55.52;100878.28;10312200;28;20058;-70
2022/07/09 22:28:29;;;;;;;1.73;1.42;;;;;;;20.16;55.93;100883.38;10334530;28;20228;-70
2022/07/09 22:33:31;;;;;;;2.03;1.50;;;;;;;20.13;56.93;100885.41;10346121;28;20117;-69
2022/07/09 22:38:32;;;;;;;1.92;1.70;;;;;;;20.11;57.53;100892.84;10335722;28;20802;-69
2022/07/09 22:43:34;;;;;;;2.30;1.52;;;;;;;20.18;57.66;100897.59;10347496;28;20041;-71
2022/07/09 22:48:35;;;;;;;2.50;1.40;;;;;;;20.10;56.97;100883.06;10340595;28;20076;-71
2022/07/09 22:53:37;;;;;;;3.58;1.25;;;;;;;20.05;58.10;100904.31;10348266;28;20042;-70
2022/07/09 22:58:38;;;;;;;1.50;1.20;;;;;;;20.05;57.32;100898.91;10350584;28;20069;-70
2022/07/09 23:03:41;;;;;;;2.50;1.02;;;;;;;19.97;57.50;100901.66;10351034;28;20061;-70
2022/07/09 23:08:55;;;;;;;4.25;1.33;;;;;;;19.91;58.45;100907.72;10351356;28;20056;-70
2022/07/09 23:13:57;;;;;;;3.58;1.30;;;;;;;19.85;58.11;100903.00;10348786;28;20716;-71
2022/07/09 23:19:01;;;;;;;1.42;0.80;;;;;;;19.87;58.72;100903.66;10349837;28;20523;-70
2022/07/09 23:24:05;;;;;;;3.00;1.25;;;;;;;19.65;58.68;100887.09;10346196;28;20088;-71
2022/07/09 23:29:06;;;;;;;4.30;1.35;;;;;;;19.68;58.89;100896.69;10342042;28;20081;-70